sensor_id;sensor_type;location;lat;lon;timestamp;P1;durP1;ratioP1;P2;durP2;ratioP2
64678;SDS011;51094;53.864;27.676;2022-08-18T00:01:49;2.47;;;2.40;;
64678;SDS011;51094;53.864;27.676;2022-08-18T00:04:20;2.50;;;2.50;;
64678;SDS011;51094;53.864;27.676;2022-08-18T00:07:02;2.20;;;2.20;;
64678;SDS011;51094;53.864;27.676;2022-08-18T00:09:29;2.30;;;2.30;;
64678;SDS011;51094;53.864;27.676;2022-08-18T00:11:59;2.47;;;2.47;;
64678;SDS011;51094;53.864;27.676;2022-08-18T00:14:28;2.40;;;2.40;;
64678;SDS011;51094;53.864;27.676;2022-08-18T00:16:55;2.40;;;2.40;;
64678;SDS011;51094;53.864;27.676;2022-08-18T00:19:22;2.38;;;2.38;;
64678;SDS011;51094;53.864;27.676;2022-08-18T00:22:11;2.70;;;2.70;;
64678;SDS011;51094;53.864;27.676;2022-08-18T00:24:41;2.50;;;2.50;;
64678;SDS011;51094;53.864;27.676;2022-08-18T00:27:18;2.80;;;2.70;;
64678;SDS011;51094;53.864;27.676;2022-08-18T00:29:49;2.70;;;2.60;;
64678;SDS011;51094;53.864;27.676;2022-08-18T00:32:18;2.70;;;2.60;;
64678;SDS011;51094;53.864;27.676;2022-08-18T00:34:53;2.67;;;2.63;;
64678;SDS011;51094;53.864;27.676;2022-08-18T00:37:21;2.80;;;2.80;;
64678;SDS011;51094;53.864;27.676;2022-08-18T00:39:50;2.60;;;2.60;;
64678;SDS011;51094;53.864;27.676;2022-08-18T00:42:20;2.53;;;2.53;;
64678;SDS011;51094;53.864;27.676;2022-08-18T00:44:56;2.78;;;2.78;;
64678;SDS011;51094;53.864;27.676;2022-08-18T00:47:29;2.58;;;2.58;;
64678;SDS011;51094;53.864;27.676;2022-08-18T00:50:10;2.13;;;2.13;;
64678;SDS011;51094;53.864;27.676;2022-08-18T00:52:41;2.42;;;2.42;;
64678;SDS011;51094;53.864;27.676;2022-08-18T00:55:11;2.60;;;2.60;;
64678;SDS011;51094;53.864;27.676;2022-08-18T00:57:38;2.50;;;2.50;;
64678;SDS011;51094;53.864;27.676;2022-08-18T01:00:06;2.50;;;2.50;;
64678;SDS011;51094;53.864;27.676;2022-08-18T01:02:45;2.50;;;2.50;;
64678;SDS011;51094;53.864;27.676;2022-08-18T01:05:21;2.80;;;2.80;;
64678;SDS011;51094;53.864;27.676;2022-08-18T01:07:49;2.60;;;2.60;;
64678;SDS011;51094;53.864;27.676;2022-08-18T01:10:18;2.70;;;2.70;;
64678;SDS011;51094;53.864;27.676;2022-08-18T01:12:48;2.70;;;2.60;;
64678;SDS011;51094;53.864;27.676;2022-08-18T01:15:17;2.50;;;2.50;;
64678;SDS011;51094;53.864;27.676;2022-08-18T01:17:59;2.85;;;2.75;;
64678;SDS011;51094;53.864;27.676;2022-08-18T01:23:54;2.70;;;2.70;;
64678;SDS011;51094;53.864;27.676;2022-08-18T01:26:21;3.08;;;3.08;;
64678;SDS011;51094;53.864;27.676;2022-08-18T01:28:49;3.00;;;2.90;;
64678;SDS011;51094;53.864;27.676;2022-08-18T01:31:39;2.83;;;2.83;;
64678;SDS011;51094;53.864;27.676;2022-08-18T01:34:20;2.70;;;2.70;;
64678;SDS011;51094;53.864;27.676;2022-08-18T01:39:18;2.75;;;2.75;;
64678;SDS011;51094;53.864;27.676;2022-08-18T01:42:06;3.08;;;2.97;;
64678;SDS011;51094;53.864;27.676;2022-08-18T01:44:33;3.00;;;2.90;;
64678;SDS011;51094;53.864;27.676;2022-08-18T01:46:59;3.03;;;3.00;;
64678;SDS011;51094;53.864;27.676;2022-08-18T01:49:26;3.10;;;3.00;;
64678;SDS011;51094;53.864;27.676;2022-08-18T01:51:54;2.90;;;2.80;;
64678;SDS011;51094;53.864;27.676;2022-08-18T01:54:21;3.00;;;3.00;;
64678;SDS011;51094;53.864;27.676;2022-08-18T01:56:48;3.15;;;3.15;;
64678;SDS011;51094;53.864;27.676;2022-08-18T01:59:14;3.08;;;3.08;;
64678;SDS011;51094;53.864;27.676;2022-08-18T02:01:43;2.95;;;2.95;;
64678;SDS011;51094;53.864;27.676;2022-08-18T02:04:19;3.20;;;3.10;;
64678;SDS011;51094;53.864;27.676;2022-08-18T02:07:01;3.40;;;3.30;;
64678;SDS011;51094;53.864;27.676;2022-08-18T02:09:31;3.30;;;3.20;;
64678;SDS011;51094;53.864;27.676;2022-08-18T02:11:59;3.10;;;3.00;;
64678;SDS011;51094;53.864;27.676;2022-08-18T02:14:26;3.33;;;3.22;;
64678;SDS011;51094;53.864;27.676;2022-08-18T02:16:57;2.85;;;2.85;;
64678;SDS011;51094;53.864;27.676;2022-08-18T02:19:39;3.35;;;3.28;;
64678;SDS011;51094;53.864;27.676;2022-08-18T02:22:08;3.40;;;3.30;;
64678;SDS011;51094;53.864;27.676;2022-08-18T02:24:37;2.95;;;2.95;;
64678;SDS011;51094;53.864;27.676;2022-08-18T02:27:05;3.10;;;3.00;;
64678;SDS011;51094;53.864;27.676;2022-08-18T02:29:32;3.08;;;3.05;;
64678;SDS011;51094;53.864;27.676;2022-08-18T02:31:59;3.50;;;3.40;;
64678;SDS011;51094;53.864;27.676;2022-08-18T02:34:26;2.75;;;2.75;;
64678;SDS011;51094;53.864;27.676;2022-08-18T02:36:53;3.25;;;3.15;;
64678;SDS011;51094;53.864;27.676;2022-08-18T02:39:20;3.58;;;3.47;;
64678;SDS011;51094;53.864;27.676;2022-08-18T02:41:46;3.38;;;3.38;;
64678;SDS011;51094;53.864;27.676;2022-08-18T02:44:13;3.38;;;3.28;;
64678;SDS011;51094;53.864;27.676;2022-08-18T02:46:40;3.40;;;3.30;;
64678;SDS011;51094;53.864;27.676;2022-08-18T02:49:06;3.40;;;3.30;;
64678;SDS011;51094;53.864;27.676;2022-08-18T02:51:33;3.33;;;3.22;;
64678;SDS011;51094;53.864;27.676;2022-08-18T02:54:00;3.22;;;3.22;;
64678;SDS011;51094;53.864;27.676;2022-08-18T02:56:28;3.50;;;3.40;;
64678;SDS011;51094;53.864;27.676;2022-08-18T03:01:36;3.30;;;3.20;;
64678;SDS011;51094;53.864;27.676;2022-08-18T03:04:06;3.05;;;3.00;;
64678;SDS011;51094;53.864;27.676;2022-08-18T03:06:35;3.15;;;3.15;;
64678;SDS011;51094;53.864;27.676;2022-08-18T03:09:03;3.40;;;3.30;;
64678;SDS011;51094;53.864;27.676;2022-08-18T03:11:31;3.15;;;3.15;;
64678;SDS011;51094;53.864;27.676;2022-08-18T03:13:58;3.88;;;3.78;;
64678;SDS011;51094;53.864;27.676;2022-08-18T03:16:25;3.70;;;3.60;;
64678;SDS011;51094;53.864;27.676;2022-08-18T03:18:52;3.40;;;3.30;;
64678;SDS011;51094;53.864;27.676;2022-08-18T03:21:21;3.50;;;3.40;;
64678;SDS011;51094;53.864;27.676;2022-08-18T03:23:51;3.60;;;3.50;;
64678;SDS011;51094;53.864;27.676;2022-08-18T03:26:27;3.38;;;3.30;;
64678;SDS011;51094;53.864;27.676;2022-08-18T03:28:55;3.70;;;3.60;;
64678;SDS011;51094;53.864;27.676;2022-08-18T03:31:23;3.70;;;3.60;;
64678;SDS011;51094;53.864;27.676;2022-08-18T03:33:54;3.50;;;3.47;;
64678;SDS011;51094;53.864;27.676;2022-08-18T03:36:26;3.20;;;3.20;;
64678;SDS011;51094;53.864;27.676;2022-08-18T03:38:56;3.35;;;3.25;;
64678;SDS011;51094;53.864;27.676;2022-08-18T03:41:24;3.60;;;3.50;;
64678;SDS011;51094;53.864;27.676;2022-08-18T03:44:13;3.50;;;3.40;;
64678;SDS011;51094;53.864;27.676;2022-08-18T03:46:41;3.20;;;3.10;;
64678;SDS011;51094;53.864;27.676;2022-08-18T03:49:10;3.60;;;3.50;;
64678;SDS011;51094;53.864;27.676;2022-08-18T03:51:37;3.83;;;3.72;;
64678;SDS011;51094;53.864;27.676;2022-08-18T03:54:04;4.00;;;3.92;;
64678;SDS011;51094;53.864;27.676;2022-08-18T03:56:33;3.90;;;3.80;;
64678;SDS011;51094;53.864;27.676;2022-08-18T03:59:02;3.00;;;3.00;;
64678;SDS011;51094;53.864;27.676;2022-08-18T04:01:31;3.20;;;3.10;;
64678;SDS011;51094;53.864;27.676;2022-08-18T04:04:00;3.20;;;3.10;;
64678;SDS011;51094;53.864;27.676;2022-08-18T04:06:33;3.10;;;3.00;;
64678;SDS011;51094;53.864;27.676;2022-08-18T04:09:07;3.15;;;3.05;;
64678;SDS011;51094;53.864;27.676;2022-08-18T04:11:36;3.33;;;3.22;;
64678;SDS011;51094;53.864;27.676;2022-08-18T04:14:04;3.33;;;3.22;;
64678;SDS011;51094;53.864;27.676;2022-08-18T04:16:31;2.88;;;2.88;;
64678;SDS011;51094;53.864;27.676;2022-08-18T04:19:00;3.17;;;3.07;;
64678;SDS011;51094;53.864;27.676;2022-08-18T04:21:31;3.60;;;3.50;;
64678;SDS011;51094;53.864;27.676;2022-08-18T04:24:00;3.38;;;3.30;;
64678;SDS011;51094;53.864;27.676;2022-08-18T04:26:34;3.38;;;3.28;;
64678;SDS011;51094;53.864;27.676;2022-08-18T04:29:03;3.20;;;3.20;;
64678;SDS011;51094;53.864;27.676;2022-08-18T04:31:31;3.47;;;3.40;;
64678;SDS011;51094;53.864;27.676;2022-08-18T04:33:59;3.17;;;3.08;;
64678;SDS011;51094;53.864;27.676;2022-08-18T04:36:27;2.95;;;2.85;;
64678;SDS011;51094;53.864;27.676;2022-08-18T04:38:55;3.35;;;3.25;;
64678;SDS011;51094;53.864;27.676;2022-08-18T04:41:22;3.05;;;3.05;;
64678;SDS011;51094;53.864;27.676;2022-08-18T04:43:53;3.08;;;3.08;;
64678;SDS011;51094;53.864;27.676;2022-08-18T04:46:24;3.10;;;3.00;;
64678;SDS011;51094;53.864;27.676;2022-08-18T04:48:52;3.22;;;3.13;;
64678;SDS011;51094;53.864;27.676;2022-08-18T04:51:25;3.17;;;3.08;;
64678;SDS011;51094;53.864;27.676;2022-08-18T04:56:41;3.20;;;3.10;;
64678;SDS011;51094;53.864;27.676;2022-08-18T04:59:12;3.28;;;3.20;;
64678;SDS011;51094;53.864;27.676;2022-08-18T05:01:41;2.85;;;2.83;;
64678;SDS011;51094;53.864;27.676;2022-08-18T05:04:14;2.95;;;2.92;;
64678;SDS011;51094;53.864;27.676;2022-08-18T05:06:42;3.35;;;3.25;;
64678;SDS011;51094;53.864;27.676;2022-08-18T05:09:10;3.22;;;3.13;;
64678;SDS011;51094;53.864;27.676;2022-08-18T05:11:42;3.10;;;3.00;;
64678;SDS011;51094;53.864;27.676;2022-08-18T05:14:12;2.80;;;2.75;;
64678;SDS011;51094;53.864;27.676;2022-08-18T05:16:39;2.63;;;2.55;;
64678;SDS011;51094;53.864;27.676;2022-08-18T05:19:14;2.90;;;2.80;;
64678;SDS011;51094;53.864;27.676;2022-08-18T05:21:48;3.17;;;3.08;;
64678;SDS011;51094;53.864;27.676;2022-08-18T05:24:17;3.85;;;3.75;;
64678;SDS011;51094;53.864;27.676;2022-08-18T05:26:45;3.10;;;3.00;;
64678;SDS011;51094;53.864;27.676;2022-08-18T05:29:14;3.20;;;3.10;;
64678;SDS011;51094;53.864;27.676;2022-08-18T05:31:48;2.95;;;2.85;;
64678;SDS011;51094;53.864;27.676;2022-08-18T05:34:17;2.65;;;2.65;;
64678;SDS011;51094;53.864;27.676;2022-08-18T05:39:26;2.33;;;2.33;;
64678;SDS011;51094;53.864;27.676;2022-08-18T05:42:14;3.03;;;2.92;;
64678;SDS011;51094;53.864;27.676;2022-08-18T05:44:56;2.85;;;2.75;;
64678;SDS011;51094;53.864;27.676;2022-08-18T05:47:29;2.95;;;2.85;;
64678;SDS011;51094;53.864;27.676;2022-08-18T05:50:08;3.10;;;3.00;;
64678;SDS011;51094;53.864;27.676;2022-08-18T05:58:24;2.90;;;2.80;;
64678;SDS011;51094;53.864;27.676;2022-08-18T06:01:03;3.00;;;2.90;;
64678;SDS011;51094;53.864;27.676;2022-08-18T06:03:35;2.60;;;2.50;;
64678;SDS011;51094;53.864;27.676;2022-08-18T06:06:19;2.92;;;2.83;;
64678;SDS011;51094;53.864;27.676;2022-08-18T06:11:31;2.55;;;2.45;;
64678;SDS011;51094;53.864;27.676;2022-08-18T06:14:06;2.60;;;2.50;;
64678;SDS011;51094;53.864;27.676;2022-08-18T06:16:50;2.30;;;2.30;;
64678;SDS011;51094;53.864;27.676;2022-08-18T06:25:30;2.42;;;2.38;;
64678;SDS011;51094;53.864;27.676;2022-08-18T06:28:11;2.95;;;2.85;;
64678;SDS011;51094;53.864;27.676;2022-08-18T06:30:43;2.70;;;2.60;;
64678;SDS011;51094;53.864;27.676;2022-08-18T06:39:20;2.17;;;2.17;;
64678;SDS011;51094;53.864;27.676;2022-08-18T06:41:56;2.50;;;2.40;;
64678;SDS011;51094;53.864;27.676;2022-08-18T06:44:31;2.35;;;2.25;;
64678;SDS011;51094;53.864;27.676;2022-08-18T06:47:04;2.30;;;2.30;;
64678;SDS011;51094;53.864;27.676;2022-08-18T06:49:46;2.53;;;2.42;;
64678;SDS011;51094;53.864;27.676;2022-08-18T06:52:20;2.13;;;2.13;;
64678;SDS011;51094;53.864;27.676;2022-08-18T06:54:47;2.40;;;2.40;;
64678;SDS011;51094;53.864;27.676;2022-08-18T07:00:00;2.22;;;2.20;;
64678;SDS011;51094;53.864;27.676;2022-08-18T07:02:47;2.63;;;2.53;;
64678;SDS011;51094;53.864;27.676;2022-08-18T07:05:17;2.40;;;2.30;;
64678;SDS011;51094;53.864;27.676;2022-08-18T07:10:37;2.08;;;2.00;;
64678;SDS011;51094;53.864;27.676;2022-08-18T07:15:41;2.30;;;2.20;;
64678;SDS011;51094;53.864;27.676;2022-08-18T07:18:11;2.33;;;2.22;;
64678;SDS011;51094;53.864;27.676;2022-08-18T07:23:46;2.50;;;2.40;;
64678;SDS011;51094;53.864;27.676;2022-08-18T07:26:08;1.98;;;1.98;;
64678;SDS011;51094;53.864;27.676;2022-08-18T07:28:37;2.30;;;2.20;;
64678;SDS011;51094;53.864;27.676;2022-08-18T07:31:11;2.47;;;2.38;;
64678;SDS011;51094;53.864;27.676;2022-08-18T07:33:45;2.00;;;2.00;;
64678;SDS011;51094;53.864;27.676;2022-08-18T07:37:23;2.00;;;2.00;;
64678;SDS011;51094;53.864;27.676;2022-08-18T07:39:37;2.00;;;1.90;;
64678;SDS011;51094;53.864;27.676;2022-08-18T07:45:32;1.95;;;1.92;;
64678;SDS011;51094;53.864;27.676;2022-08-18T07:50:58;2.22;;;2.13;;
64678;SDS011;51094;53.864;27.676;2022-08-18T07:53:41;1.90;;;1.90;;
64678;SDS011;51094;53.864;27.676;2022-08-18T07:56:30;1.80;;;1.80;;
64678;SDS011;51094;53.864;27.676;2022-08-18T08:04:14;1.60;;;1.60;;
64678;SDS011;51094;53.864;27.676;2022-08-18T08:07:04;2.08;;;2.00;;
64678;SDS011;51094;53.864;27.676;2022-08-18T08:12:42;1.80;;;1.70;;
64678;SDS011;51094;53.864;27.676;2022-08-18T08:18:33;1.85;;;1.75;;
64678;SDS011;51094;53.864;27.676;2022-08-18T08:21:16;1.30;;;1.30;;
64678;SDS011;51094;53.864;27.676;2022-08-18T08:23:59;1.33;;;1.33;;
64678;SDS011;51094;53.864;27.676;2022-08-18T08:30:10;1.20;;;1.20;;
64678;SDS011;51094;53.864;27.676;2022-08-18T08:32:42;1.10;;;1.10;;
64678;SDS011;51094;53.864;27.676;2022-08-18T08:35:24;1.30;;;1.30;;
64678;SDS011;51094;53.864;27.676;2022-08-18T08:38:18;1.10;;;1.10;;
64678;SDS011;51094;53.864;27.676;2022-08-18T08:41:11;1.20;;;1.20;;
64678;SDS011;51094;53.864;27.676;2022-08-18T08:43:46;1.30;;;1.30;;
64678;SDS011;51094;53.864;27.676;2022-08-18T08:46:31;1.10;;;1.10;;
64678;SDS011;51094;53.864;27.676;2022-08-18T08:49:17;1.10;;;1.10;;
64678;SDS011;51094;53.864;27.676;2022-08-18T08:51:52;1.13;;;1.13;;
64678;SDS011;51094;53.864;27.676;2022-08-18T08:54:26;1.02;;;1.02;;
64678;SDS011;51094;53.864;27.676;2022-08-18T08:56:58;1.00;;;1.00;;
64678;SDS011;51094;53.864;27.676;2022-08-18T08:59:26;1.42;;;1.42;;
64678;SDS011;51094;53.864;27.676;2022-08-18T09:04:34;1.10;;;1.10;;
64678;SDS011;51094;53.864;27.676;2022-08-18T09:10:23;1.20;;;1.20;;
64678;SDS011;51094;53.864;27.676;2022-08-18T09:13:21;0.98;;;0.98;;
64678;SDS011;51094;53.864;27.676;2022-08-18T09:18:59;1.02;;;1.02;;
64678;SDS011;51094;53.864;27.676;2022-08-18T09:25:10;1.10;;;1.10;;
64678;SDS011;51094;53.864;27.676;2022-08-18T09:38:54;1.00;;;1.00;;
64678;SDS011;51094;53.864;27.676;2022-08-18T09:42:10;1.10;;;1.10;;
64678;SDS011;51094;53.864;27.676;2022-08-18T09:52:56;1.00;;;1.00;;
64678;SDS011;51094;53.864;27.676;2022-08-18T09:55:42;0.80;;;0.80;;
64678;SDS011;51094;53.864;27.676;2022-08-18T10:03:42;1.00;;;1.00;;
64678;SDS011;51094;53.864;27.676;2022-08-18T10:06:13;0.93;;;0.93;;
64678;SDS011;51094;53.864;27.676;2022-08-18T10:08:52;1.05;;;1.05;;
64678;SDS011;51094;53.864;27.676;2022-08-18T10:21:09;1.00;;;1.00;;
64678;SDS011;51094;53.864;27.676;2022-08-18T10:23:51;1.10;;;1.10;;
64678;SDS011;51094;53.864;27.676;2022-08-18T10:37:18;1.00;;;1.00;;
64678;SDS011;51094;53.864;27.676;2022-08-18T10:42:41;0.90;;;0.90;;
64678;SDS011;51094;53.864;27.676;2022-08-18T10:56:43;1.20;;;1.20;;
64678;SDS011;51094;53.864;27.676;2022-08-18T11:02:30;0.90;;;0.90;;
64678;SDS011;51094;53.864;27.676;2022-08-18T11:05:46;0.80;;;0.80;;
64678;SDS011;51094;53.864;27.676;2022-08-18T11:08:13;1.00;;;1.00;;
64678;SDS011;51094;53.864;27.676;2022-08-18T11:10:46;1.00;;;1.00;;
64678;SDS011;51094;53.864;27.676;2022-08-18T11:13:57;0.98;;;0.98;;
64678;SDS011;51094;53.864;27.676;2022-08-18T11:19:26;1.08;;;1.00;;
64678;SDS011;51094;53.864;27.676;2022-08-18T11:21:55;0.90;;;0.90;;
64678;SDS011;51094;53.864;27.676;2022-08-18T11:24:23;0.77;;;0.77;;
64678;SDS011;51094;53.864;27.676;2022-08-18T11:26:57;1.02;;;1.00;;
64678;SDS011;51094;53.864;27.676;2022-08-18T11:29:40;0.90;;;0.90;;
64678;SDS011;51094;53.864;27.676;2022-08-18T11:32:27;0.90;;;0.90;;
64678;SDS011;51094;53.864;27.676;2022-08-18T11:35:04;0.88;;;0.88;;
64678;SDS011;51094;53.864;27.676;2022-08-18T11:37:45;0.90;;;0.90;;
64678;SDS011;51094;53.864;27.676;2022-08-18T11:43:26;0.77;;;0.77;;
64678;SDS011;51094;53.864;27.676;2022-08-18T11:46:21;0.90;;;0.90;;
64678;SDS011;51094;53.864;27.676;2022-08-18T11:49:18;0.90;;;0.90;;
64678;SDS011;51094;53.864;27.676;2022-08-18T11:51:56;6.00;;;2.60;;
64678;SDS011;51094;53.864;27.676;2022-08-18T11:54:34;0.85;;;0.85;;
64678;SDS011;51094;53.864;27.676;2022-08-18T11:57:28;1.00;;;1.00;;
64678;SDS011;51094;53.864;27.676;2022-08-18T12:06:24;1.10;;;1.10;;
64678;SDS011;51094;53.864;27.676;2022-08-18T12:08:59;2.70;;;2.25;;
64678;SDS011;51094;53.864;27.676;2022-08-18T12:11:31;2.95;;;2.10;;
64678;SDS011;51094;53.864;27.676;2022-08-18T12:14:05;1.40;;;1.40;;
64678;SDS011;51094;53.864;27.676;2022-08-18T12:16:55;1.50;;;1.40;;
64678;SDS011;51094;53.864;27.676;2022-08-18T12:19:28;1.70;;;1.60;;
64678;SDS011;51094;53.864;27.676;2022-08-18T12:22:21;1.30;;;1.30;;
64678;SDS011;51094;53.864;27.676;2022-08-18T12:24:53;1.23;;;1.20;;
64678;SDS011;51094;53.864;27.676;2022-08-18T12:27:22;1.40;;;1.40;;
64678;SDS011;51094;53.864;27.676;2022-08-18T12:29:57;1.40;;;1.40;;
64678;SDS011;51094;53.864;27.676;2022-08-18T12:32:27;1.98;;;1.35;;
64678;SDS011;51094;53.864;27.676;2022-08-18T12:35:15;1.30;;;1.30;;
64678;SDS011;51094;53.864;27.676;2022-08-18T12:37:47;1.95;;;1.85;;
64678;SDS011;51094;53.864;27.676;2022-08-18T12:40:34;1.80;;;1.70;;
64678;SDS011;51094;53.864;27.676;2022-08-18T12:43:01;1.45;;;1.45;;
64678;SDS011;51094;53.864;27.676;2022-08-18T12:45:31;1.40;;;1.40;;
64678;SDS011;51094;53.864;27.676;2022-08-18T12:47:58;1.30;;;1.30;;
64678;SDS011;51094;53.864;27.676;2022-08-18T12:50:30;1.20;;;1.20;;
64678;SDS011;51094;53.864;27.676;2022-08-18T12:53:04;1.08;;;1.08;;
64678;SDS011;51094;53.864;27.676;2022-08-18T12:55:33;1.10;;;1.10;;
64678;SDS011;51094;53.864;27.676;2022-08-18T12:58:08;1.00;;;1.00;;
64678;SDS011;51094;53.864;27.676;2022-08-18T13:05:29;0.95;;;0.95;;
64678;SDS011;51094;53.864;27.676;2022-08-18T13:07:59;0.83;;;0.83;;
64678;SDS011;51094;53.864;27.676;2022-08-18T13:10:30;0.88;;;0.88;;
64678;SDS011;51094;53.864;27.676;2022-08-18T13:13:11;1.25;;;1.17;;
64678;SDS011;51094;53.864;27.676;2022-08-18T13:15:39;1.30;;;1.30;;
64678;SDS011;51094;53.864;27.676;2022-08-18T13:18:23;0.93;;;0.93;;
64678;SDS011;51094;53.864;27.676;2022-08-18T13:20:55;1.35;;;1.35;;
64678;SDS011;51094;53.864;27.676;2022-08-18T13:23:25;1.40;;;1.30;;
64678;SDS011;51094;53.864;27.676;2022-08-18T13:25:53;1.47;;;1.37;;
64678;SDS011;51094;53.864;27.676;2022-08-18T13:28:27;1.20;;;1.20;;
64678;SDS011;51094;53.864;27.676;2022-08-18T13:31:04;1.30;;;1.30;;
64678;SDS011;51094;53.864;27.676;2022-08-18T13:33:32;1.20;;;1.20;;
64678;SDS011;51094;53.864;27.676;2022-08-18T13:36:20;1.10;;;1.10;;
64678;SDS011;51094;53.864;27.676;2022-08-18T13:38:48;1.27;;;1.27;;
64678;SDS011;51094;53.864;27.676;2022-08-18T13:41:20;1.38;;;1.30;;
64678;SDS011;51094;53.864;27.676;2022-08-18T13:43:50;1.33;;;1.30;;
64678;SDS011;51094;53.864;27.676;2022-08-18T13:46:18;1.23;;;1.23;;
64678;SDS011;51094;53.864;27.676;2022-08-18T13:48:55;1.10;;;1.10;;
64678;SDS011;51094;53.864;27.676;2022-08-18T13:51:28;1.25;;;1.20;;
64678;SDS011;51094;53.864;27.676;2022-08-18T13:53:56;1.52;;;1.42;;
64678;SDS011;51094;53.864;27.676;2022-08-18T13:56:43;1.20;;;1.20;;
64678;SDS011;51094;53.864;27.676;2022-08-18T13:59:18;1.30;;;1.30;;
64678;SDS011;51094;53.864;27.676;2022-08-18T14:01:48;1.30;;;1.27;;
64678;SDS011;51094;53.864;27.676;2022-08-18T14:04:19;1.60;;;1.60;;
64678;SDS011;51094;53.864;27.676;2022-08-18T14:06:51;1.35;;;1.35;;
64678;SDS011;51094;53.864;27.676;2022-08-18T14:09:24;1.20;;;1.20;;
64678;SDS011;51094;53.864;27.676;2022-08-18T14:12:05;1.10;;;1.10;;
64678;SDS011;51094;53.864;27.676;2022-08-18T14:14:47;1.45;;;1.45;;
64678;SDS011;51094;53.864;27.676;2022-08-18T14:17:17;1.30;;;1.30;;
64678;SDS011;51094;53.864;27.676;2022-08-18T14:19:44;1.20;;;1.20;;
64678;SDS011;51094;53.864;27.676;2022-08-18T14:22:35;1.33;;;1.33;;
64678;SDS011;51094;53.864;27.676;2022-08-18T14:25:20;1.42;;;1.42;;
64678;SDS011;51094;53.864;27.676;2022-08-18T14:28:06;1.25;;;1.25;;
64678;SDS011;51094;53.864;27.676;2022-08-18T14:30:37;1.45;;;1.35;;
64678;SDS011;51094;53.864;27.676;2022-08-18T14:33:09;1.40;;;1.40;;
64678;SDS011;51094;53.864;27.676;2022-08-18T14:35:37;1.33;;;1.33;;
64678;SDS011;51094;53.864;27.676;2022-08-18T14:38:23;1.52;;;1.50;;
64678;SDS011;51094;53.864;27.676;2022-08-18T14:40:51;1.20;;;1.20;;
64678;SDS011;51094;53.864;27.676;2022-08-18T14:43:18;1.20;;;1.20;;
64678;SDS011;51094;53.864;27.676;2022-08-18T14:45:51;1.30;;;1.30;;
64678;SDS011;51094;53.864;27.676;2022-08-18T14:48:23;1.50;;;1.50;;
64678;SDS011;51094;53.864;27.676;2022-08-18T14:50:53;1.30;;;1.30;;
64678;SDS011;51094;53.864;27.676;2022-08-18T14:53:23;2.03;;;1.92;;
64678;SDS011;51094;53.864;27.676;2022-08-18T14:55:54;1.52;;;1.52;;
64678;SDS011;51094;53.864;27.676;2022-08-18T14:58:26;1.67;;;1.67;;
64678;SDS011;51094;53.864;27.676;2022-08-18T15:00:59;1.80;;;1.70;;
64678;SDS011;51094;53.864;27.676;2022-08-18T15:03:34;1.50;;;1.50;;
64678;SDS011;51094;53.864;27.676;2022-08-18T15:06:03;1.60;;;1.50;;
64678;SDS011;51094;53.864;27.676;2022-08-18T15:08:31;1.73;;;1.63;;
64678;SDS011;51094;53.864;27.676;2022-08-18T15:11:00;1.50;;;1.50;;
64678;SDS011;51094;53.864;27.676;2022-08-18T15:13:28;1.90;;;1.80;;
64678;SDS011;51094;53.864;27.676;2022-08-18T15:15:55;1.55;;;1.55;;
64678;SDS011;51094;53.864;27.676;2022-08-18T15:18:27;1.92;;;1.83;;
64678;SDS011;51094;53.864;27.676;2022-08-18T15:20:54;2.08;;;1.80;;
64678;SDS011;51094;53.864;27.676;2022-08-18T15:23:59;1.45;;;1.45;;
64678;SDS011;51094;53.864;27.676;2022-08-18T15:26:46;1.75;;;1.75;;
64678;SDS011;51094;53.864;27.676;2022-08-18T15:29:17;1.85;;;1.75;;
64678;SDS011;51094;53.864;27.676;2022-08-18T15:31:47;2.13;;;2.03;;
64678;SDS011;51094;53.864;27.676;2022-08-18T15:34:16;1.70;;;1.70;;
64678;SDS011;51094;53.864;27.676;2022-08-18T15:36:46;1.80;;;1.70;;
64678;SDS011;51094;53.864;27.676;2022-08-18T15:39:13;1.77;;;1.77;;
64678;SDS011;51094;53.864;27.676;2022-08-18T15:41:41;1.70;;;1.70;;
64678;SDS011;51094;53.864;27.676;2022-08-18T15:44:15;1.70;;;1.70;;
64678;SDS011;51094;53.864;27.676;2022-08-18T15:46:46;1.60;;;1.60;;
64678;SDS011;51094;53.864;27.676;2022-08-18T15:49:18;2.30;;;2.20;;
64678;SDS011;51094;53.864;27.676;2022-08-18T15:51:48;2.10;;;2.10;;
64678;SDS011;51094;53.864;27.676;2022-08-18T15:54:18;1.50;;;1.50;;
64678;SDS011;51094;53.864;27.676;2022-08-18T15:56:46;1.20;;;1.20;;
64678;SDS011;51094;53.864;27.676;2022-08-18T15:59:24;1.45;;;1.38;;
64678;SDS011;51094;53.864;27.676;2022-08-18T16:02:06;1.50;;;1.50;;
64678;SDS011;51094;53.864;27.676;2022-08-18T16:04:37;1.50;;;1.50;;
64678;SDS011;51094;53.864;27.676;2022-08-18T16:07:08;1.60;;;1.50;;
64678;SDS011;51094;53.864;27.676;2022-08-18T16:09:35;1.60;;;1.60;;
64678;SDS011;51094;53.864;27.676;2022-08-18T16:12:02;1.20;;;1.20;;
64678;SDS011;51094;53.864;27.676;2022-08-18T16:14:29;1.30;;;1.30;;
64678;SDS011;51094;53.864;27.676;2022-08-18T16:16:56;1.40;;;1.30;;
64678;SDS011;51094;53.864;27.676;2022-08-18T16:19:23;1.30;;;1.30;;
64678;SDS011;51094;53.864;27.676;2022-08-18T16:21:53;1.52;;;1.42;;
64678;SDS011;51094;53.864;27.676;2022-08-18T16:24:20;1.33;;;1.30;;
64678;SDS011;51094;53.864;27.676;2022-08-18T16:26:48;1.30;;;1.27;;
64678;SDS011;51094;53.864;27.676;2022-08-18T16:29:17;1.17;;;1.17;;
64678;SDS011;51094;53.864;27.676;2022-08-18T16:31:44;1.30;;;1.30;;
64678;SDS011;51094;53.864;27.676;2022-08-18T16:34:12;1.20;;;1.20;;
64678;SDS011;51094;53.864;27.676;2022-08-18T16:36:39;1.30;;;1.20;;
64678;SDS011;51094;53.864;27.676;2022-08-18T16:39:06;1.10;;;1.10;;
64678;SDS011;51094;53.864;27.676;2022-08-18T16:41:34;1.38;;;1.38;;
64678;SDS011;51094;53.864;27.676;2022-08-18T16:44:01;1.60;;;1.50;;
64678;SDS011;51094;53.864;27.676;2022-08-18T16:46:27;1.48;;;1.48;;
64678;SDS011;51094;53.864;27.676;2022-08-18T16:48:55;1.10;;;1.10;;
64678;SDS011;51094;53.864;27.676;2022-08-18T16:51:25;1.42;;;1.40;;
64678;SDS011;51094;53.864;27.676;2022-08-18T16:53:53;1.67;;;1.60;;
64678;SDS011;51094;53.864;27.676;2022-08-18T16:56:21;1.60;;;1.50;;
64678;SDS011;51094;53.864;27.676;2022-08-18T17:01:35;1.42;;;1.42;;
64678;SDS011;51094;53.864;27.676;2022-08-18T17:04:22;1.50;;;1.50;;
64678;SDS011;51094;53.864;27.676;2022-08-18T17:06:59;1.50;;;1.50;;
64678;SDS011;51094;53.864;27.676;2022-08-18T17:09:27;1.40;;;1.40;;
64678;SDS011;51094;53.864;27.676;2022-08-18T17:11:54;1.52;;;1.48;;
64678;SDS011;51094;53.864;27.676;2022-08-18T17:14:22;1.60;;;1.60;;
64678;SDS011;51094;53.864;27.676;2022-08-18T17:16:51;1.40;;;1.40;;
64678;SDS011;51094;53.864;27.676;2022-08-18T17:19:22;1.70;;;1.65;;
64678;SDS011;51094;53.864;27.676;2022-08-18T17:21:50;1.58;;;1.55;;
64678;SDS011;51094;53.864;27.676;2022-08-18T17:24:17;1.20;;;1.20;;
64678;SDS011;51094;53.864;27.676;2022-08-18T17:29:42;1.58;;;1.58;;
64678;SDS011;51094;53.864;27.676;2022-08-18T17:32:24;1.55;;;1.50;;
64678;SDS011;51094;53.864;27.676;2022-08-18T17:34:59;1.50;;;1.50;;
64678;SDS011;51094;53.864;27.676;2022-08-18T17:37:29;1.70;;;1.60;;
64678;SDS011;51094;53.864;27.676;2022-08-18T17:39:57;1.67;;;1.58;;
64678;SDS011;51094;53.864;27.676;2022-08-18T17:42:30;1.40;;;1.40;;
64678;SDS011;51094;53.864;27.676;2022-08-18T17:44:59;1.42;;;1.42;;
64678;SDS011;51094;53.864;27.676;2022-08-18T17:47:31;1.42;;;1.42;;
64678;SDS011;51094;53.864;27.676;2022-08-18T17:50:05;1.67;;;1.67;;
64678;SDS011;51094;53.864;27.676;2022-08-18T17:52:59;1.55;;;1.55;;
64678;SDS011;51094;53.864;27.676;2022-08-18T17:55:35;1.77;;;1.77;;